LZPP

Details ICAO LZPP (PZY)
Name PIESTANY
Region Slovakia
Timezone Europe/Bratislava (UTC+2.0)
Plans Departing 28
Arriving 25
Stats Elevation 545 ft / 166 m (AMSL)
Location 48.625246° 17.828443°
Runways 1
Magnetic Variation 4.639° E
Sunrise 2018-05-27 02:56:16 UTC / 2018-05-27 04:56:16 Local
Sunset 2018-05-27 18:38:17 UTC / 2018-05-27 20:38:17 Local
Advertisement - Login to hide

Runways

ID Width Length Bearing (true) Bearing (mag) Surface Threshold Offset Overrun Length
01 98 ft / 30 m 6,560 ft / 1,999 m 13.71° 9.07° Asphalt 0 ft / 0 m 0 ft / 0 m
19 98 ft / 30 m 6,560 ft / 1,999 m 193.72° 189.08° Asphalt 0 ft / 0 m 0 ft / 0 m

Approach Navaids

Runway Type Ident Frequency Range Bearing (true) Bearing (mag) Slope Elevation
01 Localiser CN 109.30 MHz 18 nm / 33 km 13.97° 9.34° - 535 ft / 163 m (AMSL)
01 Glidescope CN 109.30 MHz 10 nm / 19 km 13.71° 9.08° 3.00° 535 ft / 163 m (AMSL)
01 DME CN 109.30 MHz 18 nm / 33 km - - - 561 ft / 171 m (AMSL)

Map

Weather


0- 5 10 15 20 25 30 35+ Temperature / ° C

Clouds and Precipitation
Forecast for 2018-05-27 18:00 UTC. Updated 5 hours ago

Ground ~20,000 ft ~40,000 ft Winds

METAR

LZPP 272200Z AUTO 02005KT 9999 SCT062/// 18/15 Q1020

TAF

Not found

Frequencies

Tower 125.45 MHz TWR
Warning: Do not use this data for real-world aviation or navigation. No guarantee of current accuracy is given.